sensor_id;sensor_type;location;lat;lon;timestamp;pressure;altitude;pressure_sealevel;temperature;humidity
23172;BME280;11754;42.664;23.594;2022-09-03T00:02:06;95344.19;;;17.85;84.09
23172;BME280;11754;42.664;23.594;2022-09-03T00:05:00;95343.53;;;17.90;83.86
23172;BME280;11754;42.664;23.594;2022-09-03T00:10:09;95346.16;;;17.96;83.69
23172;BME280;11754;42.664;23.594;2022-09-03T00:12:39;95333.94;;;17.82;83.49
23172;BME280;11754;42.664;23.594;2022-09-03T00:15:18;95369.56;;;17.94;83.96
23172;BME280;11754;42.664;23.594;2022-09-03T00:17:50;95364.63;;;17.91;83.86
23172;BME280;11754;42.664;23.594;2022-09-03T00:20:44;95356.13;;;17.76;83.74
23172;BME280;11754;42.664;23.594;2022-09-03T00:23:21;95353.59;;;17.88;82.94
23172;BME280;11754;42.664;23.594;2022-09-03T00:25:59;95365.91;;;17.89;83.28
23172;BME280;11754;42.664;23.594;2022-09-03T00:28:31;95353.19;;;17.84;83.51
23172;BME280;11754;42.664;23.594;2022-09-03T00:31:10;95369.16;;;17.91;83.09
23172;BME280;11754;42.664;23.594;2022-09-03T00:33:43;95366.63;;;18.02;82.75
23172;BME280;11754;42.664;23.594;2022-09-03T00:38:36;95365.00;;;18.01;82.23
23172;BME280;11754;42.664;23.594;2022-09-03T00:46:46;95366.38;;;18.11;81.42
23172;BME280;11754;42.664;23.594;2022-09-03T00:49:26;95350.59;;;18.02;81.67
23172;BME280;11754;42.664;23.594;2022-09-03T00:54:55;95372.97;;;18.08;81.88
23172;BME280;11754;42.664;23.594;2022-09-03T01:00:14;95374.00;;;18.07;81.39
23172;BME280;11754;42.664;23.594;2022-09-03T01:13:16;95375.66;;;18.01;81.40
23172;BME280;11754;42.664;23.594;2022-09-03T01:16:18;95369.16;;;17.91;81.86
23172;BME280;11754;42.664;23.594;2022-09-03T01:19:02;95362.66;;;17.80;82.10
23172;BME280;11754;42.664;23.594;2022-09-03T01:22:02;95368.00;;;17.73;82.48
23172;BME280;11754;42.664;23.594;2022-09-03T01:30:27;95350.66;;;17.58;83.97
23172;BME280;11754;42.664;23.594;2022-09-03T01:35:53;95362.09;;;17.65;83.67
23172;BME280;11754;42.664;23.594;2022-09-03T01:38:23;95370.88;;;17.72;83.62
23172;BME280;11754;42.664;23.594;2022-09-03T01:46:41;95385.19;;;17.84;82.80
23172;BME280;11754;42.664;23.594;2022-09-03T01:49:39;95387.69;;;17.86;82.83
23172;BME280;11754;42.664;23.594;2022-09-03T01:52:11;95391.31;;;17.91;82.77
23172;BME280;11754;42.664;23.594;2022-09-03T02:00:10;95396.66;;;17.91;82.19
23172;BME280;11754;42.664;23.594;2022-09-03T02:02:39;95378.66;;;17.73;82.40
23172;BME280;11754;42.664;23.594;2022-09-03T02:05:18;95382.38;;;17.79;83.02
23172;BME280;11754;42.664;23.594;2022-09-03T02:07:57;95385.72;;;17.61;83.06
23172;BME280;11754;42.664;23.594;2022-09-03T02:10:31;95394.09;;;17.65;83.49
23172;BME280;11754;42.664;23.594;2022-09-03T02:13:01;95377.09;;;17.52;83.42
23172;BME280;11754;42.664;23.594;2022-09-03T02:15:29;95379.97;;;17.58;83.91
23172;BME280;11754;42.664;23.594;2022-09-03T02:17:59;95380.81;;;17.51;84.52
23172;BME280;11754;42.664;23.594;2022-09-03T02:20:27;95368.97;;;17.34;85.04
23172;BME280;11754;42.664;23.594;2022-09-03T02:22:55;95384.97;;;17.41;85.76
23172;BME280;11754;42.664;23.594;2022-09-03T02:25:24;95383.34;;;17.33;86.20
23172;BME280;11754;42.664;23.594;2022-09-03T02:27:51;95378.84;;;17.27;86.46
23172;BME280;11754;42.664;23.594;2022-09-03T02:30:17;95367.84;;;17.17;86.94
23172;BME280;11754;42.664;23.594;2022-09-03T02:32:43;95379.72;;;17.21;87.31
23172;BME280;11754;42.664;23.594;2022-09-03T02:35:08;95390.38;;;17.14;87.66
23172;BME280;11754;42.664;23.594;2022-09-03T02:37:34;95390.78;;;17.11;88.24
23172;BME280;11754;42.664;23.594;2022-09-03T02:39:59;95387.34;;;16.97;88.61
23172;BME280;11754;42.664;23.594;2022-09-03T02:42:25;95407.19;;;17.21;88.50
23172;BME280;11754;42.664;23.594;2022-09-03T02:44:58;95396.91;;;17.25;87.77
23172;BME280;11754;42.664;23.594;2022-09-03T02:47:28;95400.63;;;17.24;87.49
23172;BME280;11754;42.664;23.594;2022-09-03T02:49:56;95407.81;;;17.17;87.77
23172;BME280;11754;42.664;23.594;2022-09-03T02:52:21;95410.50;;;17.10;88.11
23172;BME280;11754;42.664;23.594;2022-09-03T02:54:47;95404.34;;;17.10;88.55
23172;BME280;11754;42.664;23.594;2022-09-03T02:57:14;95412.94;;;17.12;88.58
23172;BME280;11754;42.664;23.594;2022-09-03T02:59:40;95392.03;;;17.09;88.56
23172;BME280;11754;42.664;23.594;2022-09-03T03:02:09;95391.84;;;17.03;88.53
23172;BME280;11754;42.664;23.594;2022-09-03T03:04:34;95409.22;;;17.13;88.65
23172;BME280;11754;42.664;23.594;2022-09-03T03:07:00;95415.81;;;17.17;88.41
23172;BME280;11754;42.664;23.594;2022-09-03T03:09:25;95401.47;;;16.91;88.02
23172;BME280;11754;42.664;23.594;2022-09-03T03:11:51;95421.16;;;16.90;88.79
23172;BME280;11754;42.664;23.594;2022-09-03T03:14:19;95402.50;;;16.84;89.00
23172;BME280;11754;42.664;23.594;2022-09-03T03:16:44;95406.44;;;16.81;89.21
23172;BME280;11754;42.664;23.594;2022-09-03T03:19:10;95418.31;;;16.85;89.46
23172;BME280;11754;42.664;23.594;2022-09-03T03:21:35;95417.28;;;16.79;89.83
23172;BME280;11754;42.664;23.594;2022-09-03T03:24:01;95422.59;;;16.86;90.11
23172;BME280;11754;42.664;23.594;2022-09-03T03:26:27;95408.66;;;16.97;90.02
23172;BME280;11754;42.664;23.594;2022-09-03T03:28:59;95411.72;;;17.08;90.00
23172;BME280;11754;42.664;23.594;2022-09-03T03:31:25;95409.03;;;17.08;89.27
23172;BME280;11754;42.664;23.594;2022-09-03T03:34:01;95412.94;;;17.12;89.21
23172;BME280;11754;42.664;23.594;2022-09-03T03:36:30;95400.00;;;17.09;89.12
23172;BME280;11754;42.664;23.594;2022-09-03T03:38:57;95394.09;;;17.07;88.85
23172;BME280;11754;42.664;23.594;2022-09-03T03:41:25;95384.66;;;17.11;88.74
23172;BME280;11754;42.664;23.594;2022-09-03T03:43:56;95402.44;;;17.23;88.33
23172;BME280;11754;42.664;23.594;2022-09-03T03:46:23;95401.00;;;17.27;88.04
23172;BME280;11754;42.664;23.594;2022-09-03T03:48:50;95403.03;;;17.32;87.53
23172;BME280;11754;42.664;23.594;2022-09-03T03:51:17;95402.56;;;17.48;87.11
23172;BME280;11754;42.664;23.594;2022-09-03T03:53:43;95398.44;;;17.52;86.79
23172;BME280;11754;42.664;23.594;2022-09-03T03:56:12;95409.06;;;17.66;86.32
23172;BME280;11754;42.664;23.594;2022-09-03T03:58:39;95410.66;;;17.73;85.94
23172;BME280;11754;42.664;23.594;2022-09-03T04:01:20;95409.03;;;17.79;85.45
23172;BME280;11754;42.664;23.594;2022-09-03T04:03:46;95398.81;;;17.76;85.04
23172;BME280;11754;42.664;23.594;2022-09-03T04:06:14;95409.22;;;17.84;84.76
23172;BME280;11754;42.664;23.594;2022-09-03T04:08:42;95406.91;;;17.94;84.37
23172;BME280;11754;42.664;23.594;2022-09-03T04:11:10;95413.03;;;18.01;83.78
23172;BME280;11754;42.664;23.594;2022-09-03T04:13:37;95416.91;;;18.06;83.43
23172;BME280;11754;42.664;23.594;2022-09-03T04:16:11;95410.31;;;18.08;82.99
23172;BME280;11754;42.664;23.594;2022-09-03T04:18:37;95408.72;;;18.00;82.57
23172;BME280;11754;42.664;23.594;2022-09-03T04:21:05;95421.03;;;18.01;82.32
23172;BME280;11754;42.664;23.594;2022-09-03T04:23:37;95424.56;;;17.95;81.42
23172;BME280;11754;42.664;23.594;2022-09-03T04:26:03;95425.84;;;17.86;81.15
23172;BME280;11754;42.664;23.594;2022-09-03T04:28:28;95430.13;;;17.87;81.25
23172;BME280;11754;42.664;23.594;2022-09-03T04:30:54;95427.53;;;17.67;80.76
23172;BME280;11754;42.664;23.594;2022-09-03T04:33:19;95425.47;;;17.63;81.42
23172;BME280;11754;42.664;23.594;2022-09-03T04:35:45;95425.50;;;17.56;81.69
23172;BME280;11754;42.664;23.594;2022-09-03T04:38:10;95419.16;;;17.64;82.09
23172;BME280;11754;42.664;23.594;2022-09-03T04:40:36;95430.41;;;17.66;81.75
23172;BME280;11754;42.664;23.594;2022-09-03T04:43:02;95432.91;;;17.61;81.86
23172;BME280;11754;42.664;23.594;2022-09-03T04:45:27;95429.19;;;17.62;82.06
23172;BME280;11754;42.664;23.594;2022-09-03T04:48:03;95433.88;;;17.80;81.92
23172;BME280;11754;42.664;23.594;2022-09-03T04:50:31;95433.28;;;17.64;81.96
23172;BME280;11754;42.664;23.594;2022-09-03T04:53:02;95446.03;;;17.56;82.68
23172;BME280;11754;42.664;23.594;2022-09-03T04:55:35;95437.06;;;17.43;83.28
23172;BME280;11754;42.664;23.594;2022-09-03T04:58:01;95449.34;;;17.38;83.68
23172;BME280;11754;42.664;23.594;2022-09-03T05:00:26;95438.13;;;17.29;84.19
23172;BME280;11754;42.664;23.594;2022-09-03T05:02:51;95458.41;;;17.30;84.62
23172;BME280;11754;42.664;23.594;2022-09-03T05:05:17;95449.41;;;17.18;85.06
23172;BME280;11754;42.664;23.594;2022-09-03T05:07:43;95452.69;;;17.20;85.20
23172;BME280;11754;42.664;23.594;2022-09-03T05:10:10;95470.72;;;17.31;85.31
23172;BME280;11754;42.664;23.594;2022-09-03T05:12:57;95468.66;;;17.33;85.13
23172;BME280;11754;42.664;23.594;2022-09-03T05:15:23;95468.22;;;17.43;84.99
23172;BME280;11754;42.664;23.594;2022-09-03T05:17:48;95463.72;;;17.43;84.57
23172;BME280;11754;42.664;23.594;2022-09-03T05:20:16;95474.38;;;17.50;84.09
23172;BME280;11754;42.664;23.594;2022-09-03T05:22:42;95456.09;;;17.53;84.00
23172;BME280;11754;42.664;23.594;2022-09-03T05:25:07;95475.31;;;17.69;83.41
23172;BME280;11754;42.664;23.594;2022-09-03T05:27:33;95462.63;;;17.71;82.37
23172;BME280;11754;42.664;23.594;2022-09-03T05:29:58;95453.03;;;17.57;81.86
23172;BME280;11754;42.664;23.594;2022-09-03T05:32:23;95486.66;;;17.58;82.13
23172;BME280;11754;42.664;23.594;2022-09-03T05:34:52;95477.59;;;17.65;82.38
23172;BME280;11754;42.664;23.594;2022-09-03T05:37:17;95479.63;;;17.76;82.19
23172;BME280;11754;42.664;23.594;2022-09-03T05:39:42;95484.16;;;17.76;81.38
23172;BME280;11754;42.664;23.594;2022-09-03T05:42:08;95486.16;;;17.74;81.41
23172;BME280;11754;42.664;23.594;2022-09-03T05:44:33;95487.88;;;17.62;81.83
23172;BME280;11754;42.664;23.594;2022-09-03T05:47:00;95491.94;;;17.71;81.71
23172;BME280;11754;42.664;23.594;2022-09-03T05:49:25;95500.34;;;17.74;80.84
23172;BME280;11754;42.664;23.594;2022-09-03T05:51:51;95494.78;;;17.89;80.82
23172;BME280;11754;42.664;23.594;2022-09-03T05:54:16;95497.03;;;17.92;80.49
23172;BME280;11754;42.664;23.594;2022-09-03T05:56:41;95502.09;;;18.07;80.13
23172;BME280;11754;42.664;23.594;2022-09-03T05:59:08;95486.13;;;18.00;79.71
23172;BME280;11754;42.664;23.594;2022-09-03T06:01:36;95494.91;;;18.08;79.22
23172;BME280;11754;42.664;23.594;2022-09-03T06:04:08;95511.31;;;18.11;78.80
23172;BME280;11754;42.664;23.594;2022-09-03T06:06:37;95494.09;;;18.07;78.75
23172;BME280;11754;42.664;23.594;2022-09-03T06:09:05;95497.50;;;18.21;79.00
23172;BME280;11754;42.664;23.594;2022-09-03T06:11:32;95509.72;;;18.42;78.24
23172;BME280;11754;42.664;23.594;2022-09-03T06:14:00;95504.75;;;18.52;77.55
23172;BME280;11754;42.664;23.594;2022-09-03T06:16:28;95508.81;;;18.61;77.10
23172;BME280;11754;42.664;23.594;2022-09-03T06:18:54;95492.31;;;18.71;76.80
23172;BME280;11754;42.664;23.594;2022-09-03T06:21:20;95497.03;;;18.76;76.51
23172;BME280;11754;42.664;23.594;2022-09-03T06:23:50;95500.13;;;18.72;75.47
23172;BME280;11754;42.664;23.594;2022-09-03T06:26:16;95492.59;;;18.56;75.47
23172;BME280;11754;42.664;23.594;2022-09-03T06:28:42;95495.25;;;18.56;75.88
23172;BME280;11754;42.664;23.594;2022-09-03T06:31:11;95497.97;;;18.49;75.74
23172;BME280;11754;42.664;23.594;2022-09-03T06:33:38;95505.66;;;18.39;76.00
23172;BME280;11754;42.664;23.594;2022-09-03T06:36:15;95495.56;;;18.41;76.49
23172;BME280;11754;42.664;23.594;2022-09-03T06:38:41;95507.53;;;18.32;76.46
23172;BME280;11754;42.664;23.594;2022-09-03T06:41:12;95506.13;;;18.23;76.73
23172;BME280;11754;42.664;23.594;2022-09-03T06:43:40;95494.66;;;18.16;76.56
23172;BME280;11754;42.664;23.594;2022-09-03T06:46:12;95510.66;;;18.22;76.72
23172;BME280;11754;42.664;23.594;2022-09-03T06:48:38;95513.53;;;18.21;76.43
23172;BME280;11754;42.664;23.594;2022-09-03T06:51:13;95512.69;;;18.20;76.34
23172;BME280;11754;42.664;23.594;2022-09-03T06:53:42;95514.53;;;18.27;76.07
23172;BME280;11754;42.664;23.594;2022-09-03T06:56:10;95513.47;;;18.34;76.44
23172;BME280;11754;42.664;23.594;2022-09-03T06:58:38;95503.94;;;18.52;75.39
23172;BME280;11754;42.664;23.594;2022-09-03T07:01:27;95507.81;;;18.87;74.39
23172;BME280;11754;42.664;23.594;2022-09-03T07:04:00;95497.34;;;19.11;73.16
23172;BME280;11754;42.664;23.594;2022-09-03T07:06:28;95507.88;;;19.31;72.46
23172;BME280;11754;42.664;23.594;2022-09-03T07:08:54;95513.31;;;19.42;71.53
23172;BME280;11754;42.664;23.594;2022-09-03T07:11:23;95503.66;;;19.41;71.26
23172;BME280;11754;42.664;23.594;2022-09-03T07:13:52;95517.88;;;19.17;70.79
23172;BME280;11754;42.664;23.594;2022-09-03T07:16:21;95514.66;;;19.08;71.79
23172;BME280;11754;42.664;23.594;2022-09-03T07:18:47;95506.84;;;19.07;72.02
23172;BME280;11754;42.664;23.594;2022-09-03T07:21:19;95522.94;;;19.25;71.82
23172;BME280;11754;42.664;23.594;2022-09-03T07:23:45;95527.34;;;19.38;71.83
23172;BME280;11754;42.664;23.594;2022-09-03T07:26:13;95526.91;;;19.41;70.67
23172;BME280;11754;42.664;23.594;2022-09-03T07:28:41;95534.75;;;19.61;71.00
23172;BME280;11754;42.664;23.594;2022-09-03T07:31:13;95536.41;;;19.62;70.65
23172;BME280;11754;42.664;23.594;2022-09-03T07:33:40;95522.75;;;19.70;70.55
23172;BME280;11754;42.664;23.594;2022-09-03T07:36:08;95541.47;;;19.70;69.96
23172;BME280;11754;42.664;23.594;2022-09-03T07:38:35;95532.63;;;19.70;70.33
23172;BME280;11754;42.664;23.594;2022-09-03T07:41:05;95539.13;;;19.80;69.97
23172;BME280;11754;42.664;23.594;2022-09-03T07:43:36;95531.88;;;19.62;70.24
23172;BME280;11754;42.664;23.594;2022-09-03T07:46:07;95528.84;;;19.77;70.06
23172;BME280;11754;42.664;23.594;2022-09-03T07:48:33;95539.50;;;20.02;69.88
23172;BME280;11754;42.664;23.594;2022-09-03T07:50:59;95552.88;;;20.21;69.86
23172;BME280;11754;42.664;23.594;2022-09-03T07:53:28;95552.09;;;20.32;69.17
23172;BME280;11754;42.664;23.594;2022-09-03T07:56:00;95552.31;;;20.49;68.12
23172;BME280;11754;42.664;23.594;2022-09-03T07:58:28;95550.53;;;20.61;68.04
23172;BME280;11754;42.664;23.594;2022-09-03T08:00:53;95539.78;;;20.91;67.51
23172;BME280;11754;42.664;23.594;2022-09-03T08:03:20;95530.28;;;21.07;66.67
23172;BME280;11754;42.664;23.594;2022-09-03T08:05:46;95545.34;;;21.31;65.00
23172;BME280;11754;42.664;23.594;2022-09-03T08:08:11;95537.78;;;21.52;64.72
23172;BME280;11754;42.664;23.594;2022-09-03T08:10:39;95551.22;;;21.75;64.51
23172;BME280;11754;42.664;23.594;2022-09-03T08:13:05;95537.75;;;21.99;63.55
23172;BME280;11754;42.664;23.594;2022-09-03T08:15:31;95544.03;;;22.28;62.72
23172;BME280;11754;42.664;23.594;2022-09-03T08:17:58;95545.75;;;22.46;61.70
23172;BME280;11754;42.664;23.594;2022-09-03T08:20:24;95546.03;;;22.33;61.11
23172;BME280;11754;42.664;23.594;2022-09-03T08:22:50;95546.72;;;22.40;61.63
23172;BME280;11754;42.664;23.594;2022-09-03T08:25:15;95551.78;;;22.53;60.97
23172;BME280;11754;42.664;23.594;2022-09-03T08:27:41;95549.75;;;22.31;61.07
23172;BME280;11754;42.664;23.594;2022-09-03T08:30:06;95551.44;;;22.49;60.93
23172;BME280;11754;42.664;23.594;2022-09-03T08:32:36;95552.00;;;22.63;60.65
23172;BME280;11754;42.664;23.594;2022-09-03T08:35:06;95547.19;;;22.65;59.78
23172;BME280;11754;42.664;23.594;2022-09-03T08:37:33;95533.38;;;22.73;59.60
23172;BME280;11754;42.664;23.594;2022-09-03T08:39:59;95553.34;;;23.06;59.33
23172;BME280;11754;42.664;23.594;2022-09-03T08:42:29;95550.19;;;23.43;58.33
23172;BME280;11754;42.664;23.594;2022-09-03T08:45:01;95542.72;;;23.84;57.51
23172;BME280;11754;42.664;23.594;2022-09-03T08:47:36;95553.00;;;24.26;55.41
23172;BME280;11754;42.664;23.594;2022-09-03T08:50:11;95539.59;;;24.75;53.97
23172;BME280;11754;42.664;23.594;2022-09-03T08:53:02;95541.31;;;24.86;52.58
23172;BME280;11754;42.664;23.594;2022-09-03T08:58:13;95537.66;;;25.94;51.70
23172;BME280;11754;42.664;23.594;2022-09-03T09:03:47;95548.16;;;27.21;47.16
23172;BME280;11754;42.664;23.594;2022-09-03T09:14:38;95528.06;;;26.91;45.22
23172;BME280;11754;42.664;23.594;2022-09-03T09:18:09;95539.41;;;26.93;45.62
23172;BME280;11754;42.664;23.594;2022-09-03T09:23:05;95535.63;;;28.17;43.42
23172;BME280;11754;42.664;23.594;2022-09-03T09:25:32;95530.22;;;28.77;42.83
23172;BME280;11754;42.664;23.594;2022-09-03T09:28:16;95525.91;;;29.20;40.33
23172;BME280;11754;42.664;23.594;2022-09-03T09:30:44;95535.19;;;29.14;40.51
23172;BME280;11754;42.664;23.594;2022-09-03T09:33:11;95536.97;;;28.84;40.59
23172;BME280;11754;42.664;23.594;2022-09-03T09:35:37;95527.63;;;29.45;41.07
23172;BME280;11754;42.664;23.594;2022-09-03T09:38:06;95523.41;;;31.07;38.52
23172;BME280;11754;42.664;23.594;2022-09-03T09:40:35;95522.56;;;31.25;36.11
23172;BME280;11754;42.664;23.594;2022-09-03T09:45:39;95515.91;;;32.29;35.12
23172;BME280;11754;42.664;23.594;2022-09-03T09:48:14;95510.66;;;31.21;36.05
23172;BME280;11754;42.664;23.594;2022-09-03T09:50:42;95510.88;;;31.25;37.02
23172;BME280;11754;42.664;23.594;2022-09-03T09:53:09;95513.44;;;31.54;36.21
23172;BME280;11754;42.664;23.594;2022-09-03T09:55:53;95514.88;;;31.65;35.19
23172;BME280;11754;42.664;23.594;2022-09-03T09:58:21;95538.81;;;31.68;36.02
23172;BME280;11754;42.664;23.594;2022-09-03T10:01:10;95534.47;;;31.67;35.94
23172;BME280;11754;42.664;23.594;2022-09-03T10:03:51;95522.00;;;31.09;35.59
23172;BME280;11754;42.664;23.594;2022-09-03T10:06:22;95524.44;;;30.68;37.17
23172;BME280;11754;42.664;23.594;2022-09-03T10:11:33;95547.78;;;30.31;38.37
23172;BME280;11754;42.664;23.594;2022-09-03T10:14:03;95543.31;;;29.87;38.83
23172;BME280;11754;42.664;23.594;2022-09-03T10:16:34;95535.28;;;30.30;38.33
23172;BME280;11754;42.664;23.594;2022-09-03T10:19:08;95529.41;;;29.89;37.92
23172;BME280;11754;42.664;23.594;2022-09-03T10:21:52;95518.22;;;30.44;37.36
23172;BME280;11754;42.664;23.594;2022-09-03T10:24:40;95532.88;;;31.28;36.56
23172;BME280;11754;42.664;23.594;2022-09-03T10:27:13;95527.41;;;32.26;34.94
23172;BME280;11754;42.664;23.594;2022-09-03T10:29:40;95509.84;;;33.10;33.42
23172;BME280;11754;42.664;23.594;2022-09-03T10:35:09;95516.25;;;35.88;29.89
23172;BME280;11754;42.664;23.594;2022-09-03T10:37:43;95526.63;;;36.68;28.49
23172;BME280;11754;42.664;23.594;2022-09-03T10:40:24;95513.25;;;39.67;25.39
23172;BME280;11754;42.664;23.594;2022-09-03T10:43:19;95510.53;;;41.84;21.28
23172;BME280;11754;42.664;23.594;2022-09-03T10:46:14;95490.44;;;45.86;19.02
23172;BME280;11754;42.664;23.594;2022-09-03T11:02:01;95471.44;;;57.37;9.90
23172;BME280;11754;42.664;23.594;2022-09-03T11:04:59;95467.50;;;58.05;9.29
23172;BME280;11754;42.664;23.594;2022-09-03T11:07:50;95460.44;;;58.00;9.52
23172;BME280;11754;42.664;23.594;2022-09-03T11:10:21;95457.34;;;56.51;9.37
23172;BME280;11754;42.664;23.594;2022-09-03T11:15:36;95463.09;;;55.98;9.79
23172;BME280;11754;42.664;23.594;2022-09-03T11:20:44;95446.00;;;57.70;9.47
23172;BME280;11754;42.664;23.594;2022-09-03T11:23:15;95457.09;;;57.50;8.82
23172;BME280;11754;42.664;23.594;2022-09-03T11:25:53;95456.69;;;58.18;8.91
23172;BME280;11754;42.664;23.594;2022-09-03T11:33:49;95459.81;;;58.62;7.85
23172;BME280;11754;42.664;23.594;2022-09-03T11:36:30;95451.63;;;56.01;9.05
23172;BME280;11754;42.664;23.594;2022-09-03T11:38:56;95443.69;;;56.77;9.16
23172;BME280;11754;42.664;23.594;2022-09-03T11:43:47;95449.09;;;59.59;8.75
23172;BME280;11754;42.664;23.594;2022-09-03T11:48:49;95436.63;;;61.70;7.72
23172;BME280;11754;42.664;23.594;2022-09-03T11:53:56;95444.41;;;62.87;5.92
23172;BME280;11754;42.664;23.594;2022-09-03T11:56:23;95429.00;;;63.27;6.33
23172;BME280;11754;42.664;23.594;2022-09-03T12:09:53;95406.78;;;61.39;7.28
23172;BME280;11754;42.664;23.594;2022-09-03T12:18:08;95414.19;;;64.07;5.66
23172;BME280;11754;42.664;23.594;2022-09-03T12:20:58;95410.31;;;63.49;5.65
23172;BME280;11754;42.664;23.594;2022-09-03T12:25:53;95406.34;;;64.19;4.94
23172;BME280;11754;42.664;23.594;2022-09-03T12:28:21;95400.63;;;64.30;5.55
23172;BME280;11754;42.664;23.594;2022-09-03T12:30:51;95385.19;;;64.50;4.81
23172;BME280;11754;42.664;23.594;2022-09-03T12:33:20;95394.38;;;64.96;5.05
23172;BME280;11754;42.664;23.594;2022-09-03T12:35:56;95377.00;;;61.20;6.61
23172;BME280;11754;42.664;23.594;2022-09-03T12:38:25;95375.69;;;61.41;6.68
23172;BME280;11754;42.664;23.594;2022-09-03T12:40:51;95384.97;;;62.97;5.89
23172;BME280;11754;42.664;23.594;2022-09-03T12:43:19;95388.19;;;63.89;5.70
23172;BME280;11754;42.664;23.594;2022-09-03T12:45:46;95381.75;;;64.63;5.42
23172;BME280;11754;42.664;23.594;2022-09-03T12:48:17;95378.84;;;63.49;6.06
23172;BME280;11754;42.664;23.594;2022-09-03T12:50:45;95382.72;;;63.63;5.64
23172;BME280;11754;42.664;23.594;2022-09-03T12:53:23;95378.97;;;64.46;5.59
23172;BME280;11754;42.664;23.594;2022-09-03T12:55:54;95380.69;;;64.72;5.18
23172;BME280;11754;42.664;23.594;2022-09-03T12:58:37;95374.91;;;63.57;6.05
23172;BME280;11754;42.664;23.594;2022-09-03T13:01:11;95361.38;;;60.43;6.50
23172;BME280;11754;42.664;23.594;2022-09-03T13:06:09;95358.34;;;54.26;9.84
23172;BME280;11754;42.664;23.594;2022-09-03T13:08:58;95369.94;;;56.12;9.21
23172;BME280;11754;42.664;23.594;2022-09-03T13:11:25;95368.75;;;58.81;7.47
23172;BME280;11754;42.664;23.594;2022-09-03T13:13:55;95365.28;;;59.75;7.49
23172;BME280;11754;42.664;23.594;2022-09-03T13:22:24;95360.66;;;62.10;6.53
23172;BME280;11754;42.664;23.594;2022-09-03T13:25:13;95347.59;;;61.97;6.25
23172;BME280;11754;42.664;23.594;2022-09-03T13:28:02;95347.16;;;61.41;5.96
23172;BME280;11754;42.664;23.594;2022-09-03T13:30:38;95342.28;;;62.16;5.79
23172;BME280;11754;42.664;23.594;2022-09-03T13:33:23;95337.44;;;61.54;6.46
23172;BME280;11754;42.664;23.594;2022-09-03T13:36:26;95338.22;;;61.28;6.27
23172;BME280;11754;42.664;23.594;2022-09-03T13:41:43;95341.75;;;62.83;5.95
23172;BME280;11754;42.664;23.594;2022-09-03T13:44:15;95339.28;;;63.42;5.66
23172;BME280;11754;42.664;23.594;2022-09-03T13:46:43;95330.66;;;63.70;5.75
23172;BME280;11754;42.664;23.594;2022-09-03T13:55:16;95324.41;;;62.98;5.89
23172;BME280;11754;42.664;23.594;2022-09-03T13:57:56;95334.03;;;63.12;6.03
23172;BME280;11754;42.664;23.594;2022-09-03T14:00:45;95330.91;;;62.99;6.33
23172;BME280;11754;42.664;23.594;2022-09-03T14:03:45;95316.28;;;60.21;7.06
23172;BME280;11754;42.664;23.594;2022-09-03T14:09:22;95337.44;;;54.92;9.94
23172;BME280;11754;42.664;23.594;2022-09-03T14:12:59;95340.81;;;55.31;9.56
23172;BME280;11754;42.664;23.594;2022-09-03T14:20:54;95336.47;;;58.06;8.21
23172;BME280;11754;42.664;23.594;2022-09-03T14:26:28;95337.66;;;57.48;8.44
23172;BME280;11754;42.664;23.594;2022-09-03T14:29:49;95340.13;;;54.39;9.71
23172;BME280;11754;42.664;23.594;2022-09-03T14:34:42;95370.75;;;47.24;14.64
23172;BME280;11754;42.664;23.594;2022-09-03T14:40:41;95374.63;;;42.45;18.49
23172;BME280;11754;42.664;23.594;2022-09-03T14:46:11;95348.31;;;38.88;22.07
23172;BME280;11754;42.664;23.594;2022-09-03T14:49:03;95380.41;;;37.70;23.35
23172;BME280;11754;42.664;23.594;2022-09-03T14:51:40;95389.53;;;36.75;24.62
23172;BME280;11754;42.664;23.594;2022-09-03T14:57:10;95387.00;;;36.49;25.36
23172;BME280;11754;42.664;23.594;2022-09-03T15:02:56;95386.09;;;35.59;26.14
23172;BME280;11754;42.664;23.594;2022-09-03T15:08:54;95393.66;;;34.06;27.77
23172;BME280;11754;42.664;23.594;2022-09-03T15:11:02;95386.88;;;33.33;29.03
23172;BME280;11754;42.664;23.594;2022-09-03T15:13:44;95395.28;;;32.77;29.70
23172;BME280;11754;42.664;23.594;2022-09-03T15:24:52;95415.41;;;31.16;32.52
23172;BME280;11754;42.664;23.594;2022-09-03T15:30:09;95411.00;;;30.02;34.61
23172;BME280;11754;42.664;23.594;2022-09-03T15:35:44;95422.47;;;29.45;35.52
23172;BME280;11754;42.664;23.594;2022-09-03T15:38:39;95431.75;;;29.10;36.12
23172;BME280;11754;42.664;23.594;2022-09-03T15:41:28;95427.28;;;28.90;36.29
23172;BME280;11754;42.664;23.594;2022-09-03T15:43:58;95425.63;;;28.55;36.75
23172;BME280;11754;42.664;23.594;2022-09-03T15:55:07;95450.59;;;27.72;39.30
23172;BME280;11754;42.664;23.594;2022-09-03T15:57:40;95442.25;;;27.53;39.53
23172;BME280;11754;42.664;23.594;2022-09-03T16:00:17;95445.78;;;27.33;39.88
23172;BME280;11754;42.664;23.594;2022-09-03T16:02:47;95456.38;;;27.14;40.65
23172;BME280;11754;42.664;23.594;2022-09-03T16:05:34;95449.84;;;26.95;40.96
23172;BME280;11754;42.664;23.594;2022-09-03T16:08:09;95463.09;;;26.81;41.58
23172;BME280;11754;42.664;23.594;2022-09-03T16:10:46;95457.63;;;26.60;41.93
23172;BME280;11754;42.664;23.594;2022-09-03T16:16:03;95455.13;;;26.39;42.54
23172;BME280;11754;42.664;23.594;2022-09-03T16:18:37;95463.72;;;26.20;43.04
23172;BME280;11754;42.664;23.594;2022-09-03T16:23:49;95467.13;;;25.95;43.79
23172;BME280;11754;42.664;23.594;2022-09-03T16:26:24;95483.47;;;25.78;43.93
23172;BME280;11754;42.664;23.594;2022-09-03T16:28:52;95467.97;;;25.58;44.64
23172;BME280;11754;42.664;23.594;2022-09-03T16:36:51;95494.66;;;25.12;46.17
23172;BME280;11754;42.664;23.594;2022-09-03T16:39:48;95499.75;;;24.82;47.00
23172;BME280;11754;42.664;23.594;2022-09-03T16:51:15;95500.00;;;24.09;48.64